createdAt,value
2023-01-08T01:24:07.359Z,0.59
2023-01-08T01:25:07.374Z,0.59
2023-01-08T01:26:07.412Z,0.61
2023-01-08T01:27:07.435Z,0.60
2023-01-08T01:28:07.485Z,0.60
2023-01-08T01:35:07.310Z,0.60
2023-01-08T01:36:07.280Z,0.59
2023-01-08T01:37:07.230Z,0.59
2023-01-08T01:38:07.192Z,0.59
2023-01-08T01:39:07.153Z,0.60
2023-01-08T01:40:07.117Z,0.60
2023-01-08T01:41:07.091Z,0.61
2023-01-08T01:42:07.056Z,0.61
2023-01-08T01:43:07.031Z,0.60
2023-01-08T01:44:06.990Z,0.61
2023-01-08T01:45:06.947Z,0.60
2023-01-08T01:46:06.965Z,0.62
2023-01-08T01:47:06.870Z,0.61
2023-01-08T01:48:06.830Z,0.61
2023-01-08T01:49:06.882Z,0.61
2023-01-08T01:50:06.768Z,0.60
2023-01-08T01:51:06.731Z,0.60
2023-01-08T01:52:06.701Z,0.61
2023-01-08T01:53:06.662Z,0.61
2023-01-08T01:54:06.640Z,0.60
2023-01-08T01:55:06.596Z,0.59
2023-01-08T01:56:06.566Z,0.60
2023-01-08T01:57:06.528Z,0.59
2023-01-08T01:58:06.519Z,0.59
2023-01-08T01:59:06.458Z,0.60
2023-01-08T02:00:06.433Z,0.60
2023-01-08T02:01:06.414Z,0.59
2023-01-08T02:02:06.470Z,0.60
2023-01-08T02:03:06.290Z,0.60
2023-01-08T02:04:06.304Z,0.60
2023-01-08T02:05:06.333Z,0.59
2023-01-08T02:06:06.188Z,0.60
2023-01-08T02:07:06.154Z,0.60
2023-01-08T02:08:06.103Z,0.61
2023-01-08T02:09:06.075Z,0.60
2023-01-08T02:10:06.023Z,0.59
2023-01-08T02:11:05.979Z,0.58
2023-01-08T02:12:05.953Z,0.61
2023-01-08T02:13:05.916Z,0.59
2023-01-08T02:14:05.886Z,0.57
2023-01-08T02:15:05.815Z,0.61
2023-01-08T02:16:05.783Z,0.60
2023-01-08T02:17:05.838Z,0.60
2023-01-08T02:18:05.709Z,0.60
2023-01-08T02:19:05.662Z,0.60
2023-01-08T02:20:05.625Z,0.57
2023-01-08T02:21:05.668Z,0.59
2023-01-08T02:22:05.531Z,0.59
2023-01-08T02:23:05.496Z,0.59
2023-01-08T02:24:05.455Z,0.59
2023-01-08T02:25:05.415Z,0.61
2023-01-08T02:26:05.372Z,0.59
2023-01-08T02:27:05.340Z,0.61
2023-01-08T02:28:05.293Z,0.58
2023-01-08T02:29:05.286Z,0.60
2023-01-08T02:30:05.196Z,0.59
2023-01-08T02:31:05.227Z,0.57
2023-01-08T02:32:05.123Z,0.57
2023-01-08T02:33:05.061Z,0.59
2023-01-08T02:34:05.031Z,0.58
2023-01-08T02:35:04.992Z,0.57
2023-01-08T02:36:04.932Z,0.58
2023-01-08T02:37:04.966Z,0.60
2023-01-08T02:38:04.846Z,0.58
2023-01-08T02:39:04.796Z,0.58
2023-01-08T02:40:04.776Z,0.59
2023-01-08T02:41:04.720Z,0.57
2023-01-08T02:42:04.661Z,0.57
2023-01-08T02:43:04.629Z,0.59
2023-01-08T02:44:04.567Z,0.60
2023-01-08T02:45:04.531Z,0.59
2023-01-08T02:46:04.502Z,0.58
2023-01-08T02:47:04.440Z,0.58
2023-01-08T02:48:04.401Z,0.59
2023-01-08T02:49:04.365Z,0.58
2023-01-08T02:50:04.336Z,0.59
2023-01-08T02:51:04.274Z,0.58
2023-01-08T02:52:04.250Z,0.58
2023-01-08T02:53:04.274Z,0.57
2023-01-08T02:54:04.145Z,0.59
2023-01-08T02:55:04.106Z,0.60
2023-01-08T02:56:04.058Z,0.57
2023-01-08T02:57:04.027Z,0.57
2023-01-08T02:58:03.971Z,0.56
2023-01-08T02:59:03.918Z,0.59
2023-01-08T03:00:03.884Z,0.58
2023-01-08T03:01:03.869Z,0.60
2023-01-08T03:02:03.961Z,0.59
2023-01-08T03:03:03.749Z,0.59
2023-01-08T03:04:03.790Z,0.59
2023-01-08T03:05:03.670Z,0.57
2023-01-08T03:06:03.647Z,0.59
2023-01-08T03:07:03.590Z,0.58
2023-01-08T03:08:03.547Z,0.60
2023-01-08T03:09:03.593Z,0.58
2023-01-08T03:10:03.477Z,0.57
2023-01-08T03:11:03.440Z,0.59
2023-01-08T03:12:03.385Z,0.57
2023-01-08T03:13:03.351Z,0.59
2023-01-08T03:14:03.319Z,0.58
2023-01-08T03:15:03.290Z,0.59
2023-01-08T03:16:03.239Z,0.60
2023-01-08T03:17:03.265Z,0.59
2023-01-08T03:18:03.193Z,0.59
2023-01-08T03:19:03.162Z,0.58
2023-01-08T03:20:03.132Z,0.60
2023-01-08T03:21:03.473Z,0.60
2023-01-08T03:22:03.057Z,0.59
2023-01-08T03:23:03.139Z,0.58
2023-01-08T03:24:02.998Z,0.58
2023-01-08T03:25:03.550Z,0.58
2023-01-08T05:01:59.468Z,0.54
2023-01-08T05:02:59.422Z,0.53
2023-01-08T05:03:59.287Z,0.54
2023-01-08T05:04:59.234Z,0.56
2023-01-08T05:05:59.202Z,0.53
2023-01-08T05:06:59.171Z,0.54
2023-01-08T05:07:59.128Z,0.53
2023-01-08T05:08:59.079Z,0.53
2023-01-08T05:09:59.034Z,0.54
2023-01-08T05:10:59.000Z,0.55
2023-01-08T05:11:58.947Z,0.56
2023-01-08T05:12:58.936Z,0.55
2023-01-08T05:13:58.871Z,0.54
2023-01-08T05:14:58.837Z,0.55
2023-01-08T05:15:58.829Z,0.54
2023-01-08T05:16:58.835Z,0.54
2023-01-08T05:17:58.731Z,0.54
2023-01-08T05:18:58.681Z,0.54
2023-01-08T05:19:58.652Z,0.54
2023-01-08T05:20:58.667Z,0.52
2023-01-08T05:21:58.616Z,0.52
2023-01-08T05:22:58.666Z,0.54
2023-01-08T05:23:58.596Z,0.54
2023-01-08T05:24:58.547Z,0.53
2023-01-08T05:25:58.426Z,0.52
2023-01-08T05:26:58.412Z,0.51
2023-01-08T05:27:58.349Z,0.52
2023-01-08T05:28:58.322Z,0.52
2023-01-08T05:29:58.279Z,0.52
2023-01-08T05:30:58.301Z,0.54
2023-01-08T05:31:58.213Z,0.55
2023-01-08T05:32:58.268Z,0.53
2023-01-08T05:33:58.148Z,0.52
2023-01-08T05:34:58.125Z,0.54
2023-01-08T05:35:58.099Z,0.53
2023-01-08T05:36:58.121Z,0.54
2023-01-08T05:37:58.129Z,0.53
2023-01-08T05:38:58.140Z,0.51
2023-01-08T05:39:57.963Z,0.52
2023-01-08T05:40:57.920Z,0.52
2023-01-08T05:41:57.869Z,0.53
2023-01-08T05:42:57.873Z,0.53
2023-01-08T05:43:57.805Z,0.52
2023-01-08T05:44:57.766Z,0.54
2023-01-08T05:45:57.745Z,0.53
2023-01-08T05:46:57.698Z,0.53
2023-01-08T05:47:57.668Z,0.52
2023-01-08T05:48:57.726Z,0.51
2023-01-08T05:49:57.605Z,0.54
2023-01-08T05:50:57.567Z,0.50
2023-01-08T05:51:57.532Z,0.54
2023-01-08T05:52:57.504Z,0.50
2023-01-08T05:53:57.474Z,0.51
2023-01-08T05:54:57.441Z,0.53
2023-01-08T05:55:57.406Z,0.52
2023-01-08T05:56:57.409Z,0.54
2023-01-08T05:57:57.341Z,0.52
2023-01-08T05:58:57.309Z,0.52
2023-01-08T05:59:57.280Z,0.50
2023-01-08T06:00:57.231Z,0.53
2023-01-08T06:01:57.207Z,0.55
2023-01-08T06:02:57.262Z,0.53
2023-01-08T06:03:57.192Z,0.54
2023-01-08T06:04:57.112Z,0.54
2023-01-08T06:05:57.078Z,0.52
2023-01-08T06:06:57.047Z,0.52
2023-01-08T06:07:57.015Z,0.54
2023-01-08T06:08:56.992Z,0.54
2023-01-08T06:09:56.953Z,0.54
2023-01-08T06:10:56.922Z,0.54
2023-01-08T06:11:56.878Z,0.54
2023-01-08T06:12:56.849Z,0.54
2023-01-08T06:13:56.830Z,0.54
2023-01-08T06:14:56.790Z,0.55
2023-01-08T06:15:56.758Z,0.52
2023-01-08T06:16:56.735Z,0.53
2023-01-08T06:17:56.701Z,0.53
2023-01-08T06:18:56.676Z,0.53
2023-01-08T06:19:56.634Z,0.55
2023-01-08T06:20:56.699Z,0.55
2023-01-08T06:21:56.626Z,0.56
2023-01-08T06:22:56.530Z,0.55
2023-01-08T06:23:56.498Z,0.55
2023-01-08T06:24:56.464Z,0.55
2023-01-08T06:25:56.437Z,0.53
2023-01-08T06:26:56.398Z,0.55
2023-01-08T06:27:56.357Z,0.55
2023-01-08T06:28:56.369Z,0.52
2023-01-08T06:29:56.297Z,0.54
2023-01-08T06:30:56.350Z,0.51
2023-01-08T06:31:56.234Z,0.55
2023-01-08T06:32:56.200Z,0.53
2023-01-08T06:33:56.176Z,0.54
2023-01-08T06:34:56.124Z,0.55
2023-01-08T06:35:56.101Z,0.54
2023-01-08T06:36:56.150Z,0.53
2023-01-08T06:37:56.055Z,0.55
2023-01-08T06:38:56.021Z,0.52
2023-01-08T06:39:55.952Z,0.54
2023-01-08T06:40:55.921Z,0.54
2023-01-08T06:41:55.880Z,0.55
2023-01-08T06:42:55.851Z,0.53
2023-01-08T06:43:55.838Z,0.55
2023-01-08T06:44:55.789Z,0.55
2023-01-08T06:45:55.754Z,0.55
2023-01-08T06:46:55.772Z,0.56
2023-01-08T06:47:55.677Z,0.54
2023-01-08T06:48:55.640Z,0.55
2023-01-08T06:49:55.611Z,0.52
2023-01-08T06:50:55.579Z,0.54
2023-01-08T06:51:55.555Z,0.52
2023-01-08T06:52:55.576Z,0.54
2023-01-08T06:53:55.465Z,0.55
2023-01-08T06:54:55.439Z,0.56
2023-01-08T06:55:55.395Z,0.55
2023-01-08T06:56:55.378Z,0.56
2023-01-08T06:57:55.361Z,0.54
2023-01-08T06:58:55.320Z,0.57
2023-01-08T06:59:55.287Z,0.57
2023-01-08T07:00:55.276Z,0.55
2023-01-08T07:01:55.377Z,0.56
2023-01-08T07:02:55.402Z,0.58
2023-01-08T07:03:55.175Z,0.55
2023-01-08T07:04:55.148Z,0.55
2023-01-08T07:05:55.122Z,0.55
2023-01-08T07:06:55.096Z,0.56
2023-01-08T07:07:55.080Z,0.55
2023-01-08T07:08:55.139Z,0.54
2023-01-08T07:09:55.027Z,0.56
2023-01-08T07:10:54.976Z,0.56
2023-01-08T07:11:54.961Z,0.56
2023-01-08T07:12:54.942Z,0.56
2023-01-08T07:13:54.933Z,0.56
2023-01-08T07:14:54.910Z,0.54
2023-01-08T07:15:54.928Z,0.56
2023-01-08T07:16:54.865Z,0.52
2023-01-08T07:17:54.845Z,0.55
2023-01-08T07:18:54.818Z,0.54
2023-01-08T07:19:54.808Z,0.52
2023-01-08T07:20:54.809Z,0.54
2023-01-08T07:21:54.778Z,0.55
2023-01-08T07:22:54.745Z,0.55
2023-01-08T07:23:54.723Z,0.53
2023-01-08T07:24:54.783Z,0.57
2023-01-08T07:25:54.682Z,0.57
2023-01-08T07:26:54.655Z,0.58
2023-01-08T07:27:54.648Z,0.55
2023-01-08T07:28:54.623Z,0.55
2023-01-08T07:29:54.634Z,0.56
2023-01-08T07:30:54.616Z,0.56
2023-01-08T07:31:54.556Z,0.56
2023-01-08T07:32:54.546Z,0.57
2023-01-08T07:33:54.525Z,0.55
2023-01-08T07:34:54.510Z,0.56
2023-01-08T07:35:54.499Z,0.56
2023-01-08T07:36:54.467Z,0.57
2023-01-08T07:37:54.462Z,0.57
2023-01-08T07:38:54.427Z,0.58
2023-01-08T07:39:54.396Z,0.56
2023-01-08T07:40:54.464Z,0.56
2023-01-08T07:41:54.343Z,0.55
2023-01-08T07:42:54.318Z,0.55
2023-01-08T07:43:54.279Z,0.57
2023-01-08T07:44:54.242Z,0.57
2023-01-08T07:45:54.210Z,0.56
2023-01-08T07:46:54.216Z,0.57
2023-01-08T07:47:54.153Z,0.55
2023-01-08T07:48:55.069Z,0.54
2023-01-08T07:49:54.073Z,0.55
2023-01-08T07:50:54.089Z,0.56
2023-01-08T07:51:54.073Z,0.55
2023-01-08T07:52:54.042Z,0.56
2023-01-08T07:53:53.969Z,0.57
2023-01-08T07:54:53.885Z,0.53
2023-01-08T07:55:53.847Z,0.57
2023-01-08T07:56:53.898Z,0.54
2023-01-08T07:57:53.785Z,0.56
2023-01-08T07:58:53.751Z,0.56
2023-01-08T07:59:53.716Z,0.57
2023-01-08T08:00:53.685Z,0.56
2023-01-08T08:01:53.800Z,0.55
2023-01-08T08:02:53.713Z,0.54
2023-01-08T08:03:53.580Z,0.56
2023-01-08T08:04:53.545Z,0.55
2023-01-08T08:05:53.498Z,0.56
2023-01-08T08:06:53.460Z,0.55
2023-01-08T08:07:53.418Z,0.55
2023-01-08T08:08:53.382Z,0.55
2023-01-08T08:09:53.347Z,0.54
2023-01-08T08:10:53.307Z,0.54
2023-01-08T08:11:53.275Z,0.53
2023-01-08T08:12:53.333Z,0.54
2023-01-08T08:13:55.306Z,0.55
2023-01-08T08:14:53.156Z,0.54
2023-01-08T08:15:53.123Z,0.55
2023-01-08T08:16:53.063Z,0.54
2023-01-08T08:17:53.035Z,0.54
2023-01-08T08:18:52.990Z,0.53
2023-01-08T08:19:52.959Z,0.54
2023-01-08T08:20:52.942Z,0.54
2023-01-08T08:21:52.892Z,0.53
2023-01-08T08:22:52.843Z,0.51
2023-01-08T08:23:52.866Z,0.52
2023-01-08T08:24:52.770Z,0.52
2023-01-08T08:25:52.762Z,0.53
2023-01-08T08:26:52.726Z,0.52
2023-01-08T08:27:52.702Z,0.52
2023-01-08T08:28:52.752Z,0.53
2023-01-08T08:29:52.635Z,0.52
2023-01-08T08:30:52.651Z,0.51
2023-01-08T08:31:52.588Z,0.51
2023-01-08T08:32:52.536Z,0.51
2023-01-08T08:33:52.506Z,0.54
2023-01-08T08:34:52.478Z,0.54
2023-01-08T08:35:52.449Z,0.54
2023-01-08T08:36:52.407Z,0.55
2023-01-08T08:37:52.375Z,0.55
2023-01-08T08:38:52.342Z,0.54
2023-01-08T08:39:52.324Z,0.56
2023-01-08T08:40:52.285Z,0.56
2023-01-08T08:41:52.260Z,0.56
2023-01-08T08:42:52.221Z,0.56
2023-01-08T08:43:52.182Z,0.56
2023-01-08T08:44:52.235Z,0.57
2023-01-08T08:45:52.118Z,0.56
2023-01-08T08:46:52.141Z,0.54
2023-01-08T08:47:52.035Z,0.54
2023-01-08T08:48:52.020Z,0.54
2023-01-08T08:49:52.004Z,0.56
2023-01-08T08:50:51.945Z,0.57
2023-01-08T08:51:52.102Z,0.57
2023-01-08T08:52:51.906Z,0.55
2023-01-08T08:53:52.609Z,0.56
2023-01-08T08:54:51.863Z,0.56
2023-01-08T08:55:51.806Z,0.57
2023-01-08T08:56:51.785Z,0.57
2023-01-08T08:57:51.742Z,0.58
2023-01-08T08:58:51.702Z,0.59
2023-01-08T08:59:51.630Z,0.58
2023-01-08T09:00:51.687Z,0.58
2023-01-08T09:01:51.754Z,0.58
2023-01-08T09:02:51.673Z,0.59
2023-01-08T09:03:51.523Z,0.59
2023-01-08T09:04:51.460Z,0.58
2023-01-08T09:05:51.431Z,0.60
2023-01-08T09:06:51.430Z,0.56
2023-01-08T09:07:51.372Z,0.59
2023-01-08T09:08:51.335Z,0.59
2023-01-08T09:09:51.288Z,0.59
2023-01-08T09:10:51.264Z,0.58
2023-01-08T09:11:51.244Z,0.59
2023-01-08T09:12:51.199Z,0.59
2023-01-08T09:13:51.163Z,0.58
2023-01-08T09:14:51.121Z,0.61
2023-01-08T09:15:51.110Z,0.61
2023-01-08T09:16:51.138Z,0.57
2023-01-08T09:17:51.022Z,0.59
2023-01-08T09:18:50.977Z,0.61
2023-01-08T09:19:50.943Z,0.59
2023-01-08T09:20:50.912Z,0.59
2023-01-08T09:21:50.882Z,0.61
2023-01-08T09:22:50.847Z,0.62
2023-01-08T09:23:50.819Z,0.60
2023-01-08T09:24:50.757Z,0.61
2023-01-08T09:25:50.734Z,0.59
2023-01-08T09:26:50.714Z,0.63
2023-01-08T09:27:50.664Z,0.59
2023-01-08T09:28:50.625Z,0.60
2023-01-08T09:29:50.593Z,0.59
2023-01-08T09:30:50.559Z,0.59
2023-01-08T09:31:50.590Z,0.59
2023-01-08T09:32:50.564Z,0.57
2023-01-08T09:33:50.446Z,0.60
2023-01-08T09:34:50.408Z,0.59
2023-01-08T09:35:50.384Z,0.59
2023-01-08T09:36:50.334Z,0.56
2023-01-08T09:37:50.297Z,0.58
2023-01-08T09:38:50.256Z,0.59
2023-01-08T09:39:57.686Z,0.58
2023-01-08T09:40:51.192Z,0.58
2023-01-08T09:41:50.156Z,0.58
2023-01-08T09:42:50.128Z,0.57
2023-01-08T09:43:50.088Z,0.58
2023-01-08T09:44:50.064Z,0.58
2023-01-08T09:45:50.034Z,0.58
2023-01-08T09:46:49.988Z,0.57
2023-01-08T09:47:49.941Z,0.60
2023-01-08T09:48:50.002Z,0.59
2023-01-08T09:49:49.880Z,0.58
2023-01-08T09:50:49.840Z,0.59
2023-01-08T09:51:49.799Z,0.56
2023-01-08T09:52:49.766Z,0.58
2023-01-08T09:53:49.735Z,0.58
2023-01-08T09:54:49.700Z,0.58
2023-01-08T09:55:53.630Z,0.60
2023-01-08T09:56:50.624Z,0.60
2023-01-08T09:57:49.614Z,0.60
2023-01-08T09:58:49.565Z,0.60
2023-01-08T09:59:49.517Z,0.60
2023-01-08T10:00:49.540Z,0.60
2023-01-08T10:01:49.565Z,0.59
2023-01-08T10:02:49.418Z,0.60
2023-01-08T10:03:49.331Z,0.59
2023-01-08T10:04:49.275Z,0.57
2023-01-08T10:05:49.245Z,0.57
2023-01-08T10:06:49.195Z,0.58
2023-01-08T10:07:49.145Z,0.56
2023-01-08T10:08:49.119Z,0.57
2023-01-08T10:09:49.082Z,0.59
2023-01-08T10:10:49.026Z,0.58
2023-01-08T10:11:48.998Z,0.54
2023-01-08T10:12:48.955Z,0.56
2023-01-08T10:13:48.916Z,0.56
2023-01-08T10:14:48.920Z,0.56
2023-01-08T10:15:48.848Z,0.56
2023-01-08T10:16:48.812Z,0.56
2023-01-08T10:17:49.634Z,0.56
2023-01-08T10:18:48.796Z,0.58
2023-01-08T10:19:48.775Z,0.57
2023-01-08T10:20:48.771Z,0.58
2023-01-08T10:21:48.657Z,0.58
2023-01-08T10:22:48.625Z,0.57
2023-01-08T10:23:48.570Z,0.57
2023-01-08T10:24:48.540Z,0.55
2023-01-08T10:25:48.503Z,0.58
2023-01-08T10:26:48.477Z,0.57
2023-01-08T10:27:48.494Z,0.57
2023-01-08T10:28:48.491Z,0.58
2023-01-08T10:29:48.407Z,0.56
2023-01-08T10:30:48.335Z,0.57
2023-01-08T10:31:48.335Z,0.58
2023-01-08T10:32:48.236Z,0.57
2023-01-08T10:33:48.197Z,0.57
2023-01-08T10:34:48.178Z,0.57
2023-01-08T10:35:48.127Z,0.58
2023-01-08T10:36:48.084Z,0.59
2023-01-08T10:37:48.038Z,0.58
2023-01-08T10:38:48.023Z,0.59
2023-01-08T10:39:47.974Z,0.58
2023-01-08T10:40:47.949Z,0.57
2023-01-08T10:41:47.890Z,0.55
2023-01-08T10:42:47.852Z,0.55
2023-01-08T10:43:47.819Z,0.58
2023-01-08T10:44:47.786Z,0.58
2023-01-08T10:45:47.793Z,0.57
2023-01-08T10:46:47.740Z,0.57
2023-01-08T10:47:47.680Z,0.57
2023-01-08T10:48:47.645Z,0.57
2023-01-08T10:49:47.631Z,0.55
2023-01-08T10:50:47.576Z,0.55
2023-01-08T10:51:47.541Z,0.56
2023-01-08T10:52:47.606Z,0.54
2023-01-08T10:53:47.476Z,0.57
2023-01-08T10:54:47.445Z,0.57
2023-01-08T10:55:47.413Z,0.56
2023-01-08T10:56:47.365Z,0.56
2023-01-08T10:57:47.318Z,0.57
2023-01-08T10:58:47.315Z,0.59
2023-01-08T10:59:47.262Z,0.57
2023-01-08T11:00:47.250Z,0.59
2023-01-08T11:01:47.333Z,0.57
2023-01-08T11:02:47.228Z,0.56
2023-01-08T11:03:47.118Z,0.58
2023-01-08T11:04:47.094Z,0.55
2023-01-08T11:05:47.059Z,0.56
2023-01-08T11:06:47.023Z,0.58
2023-01-08T11:07:46.989Z,0.58
2023-01-08T11:08:46.955Z,0.58
2023-01-08T11:09:46.925Z,0.57
2023-01-08T11:10:46.897Z,0.58
2023-01-08T11:11:46.843Z,0.57
2023-01-08T11:12:46.833Z,0.57
2023-01-08T11:13:46.776Z,0.58
2023-01-08T11:14:46.765Z,0.56
2023-01-08T11:15:46.708Z,0.59
2023-01-08T11:16:46.679Z,0.56
2023-01-08T11:17:46.641Z,0.54
2023-01-08T11:18:46.606Z,0.55
2023-01-08T11:19:46.584Z,0.58
2023-01-08T11:20:46.548Z,0.52
2023-01-08T11:21:46.530Z,0.53
2023-01-08T11:22:46.494Z,0.57
2023-01-08T11:23:46.450Z,0.58
2023-01-08T11:24:46.431Z,0.57
2023-01-08T11:25:46.384Z,0.54
2023-01-08T11:26:46.387Z,0.53
2023-01-08T11:27:46.311Z,0.54
2023-01-08T11:28:46.274Z,0.56
2023-01-08T11:29:46.246Z,0.55
2023-01-08T11:30:46.221Z,0.54
2023-01-08T11:31:46.200Z,0.56
2023-01-08T11:32:46.115Z,0.55
2023-01-08T11:33:46.077Z,0.55
2023-01-08T11:34:46.050Z,0.56
2023-01-08T11:35:46.015Z,0.55
2023-01-08T11:36:45.972Z,0.54
2023-01-08T11:37:45.934Z,0.54
2023-01-08T11:38:45.892Z,0.57
2023-01-08T11:39:45.856Z,0.57
2023-01-08T11:40:45.814Z,0.57
2023-01-08T11:41:45.781Z,0.56
2023-01-08T11:42:45.754Z,0.57
2023-01-08T11:43:45.712Z,0.57
2023-01-08T11:44:45.688Z,0.53
2023-01-08T11:45:45.670Z,0.56
2023-01-08T11:46:45.596Z,0.57
2023-01-08T11:47:45.554Z,0.59
2023-01-08T11:48:45.523Z,0.58
2023-01-08T11:49:45.496Z,0.56
2023-01-08T11:50:45.470Z,0.58
2023-01-08T11:51:45.418Z,0.58
2023-01-08T11:52:45.399Z,0.58
2023-01-08T11:53:45.355Z,0.57
2023-01-08T11:54:45.325Z,0.54
2023-01-08T11:55:45.304Z,0.57
2023-01-08T11:56:45.257Z,0.54
2023-01-08T11:57:45.225Z,0.56
2023-01-08T11:58:45.195Z,0.55
2023-01-08T11:59:45.160Z,0.55
2023-01-08T12:00:45.128Z,0.56
2023-01-08T12:01:45.155Z,0.55
2023-01-08T12:02:45.039Z,0.55
2023-01-08T12:03:45.005Z,0.57
2023-01-08T12:04:44.966Z,0.55
2023-01-08T12:05:44.935Z,0.55
2023-01-08T12:06:44.993Z,0.55
2023-01-08T12:07:44.951Z,0.56
2023-01-08T12:08:44.914Z,0.55
2023-01-08T12:09:44.782Z,0.54
2023-01-08T12:10:44.865Z,0.53
2023-01-08T12:11:44.730Z,0.57
2023-01-08T12:12:44.678Z,0.56
2023-01-08T12:13:44.636Z,0.54
2023-01-08T12:14:44.609Z,0.57
2023-01-08T12:15:44.560Z,0.55
2023-01-08T12:16:44.567Z,0.56
2023-01-08T12:17:44.493Z,0.56
2023-01-08T12:18:44.460Z,0.57
2023-01-08T12:19:44.418Z,0.55
2023-01-08T12:20:44.384Z,0.53
2023-01-08T12:21:44.362Z,0.55
2023-01-08T12:22:44.357Z,0.56
2023-01-08T12:23:44.277Z,0.51
2023-01-08T12:24:44.234Z,0.53
2023-01-08T12:25:44.202Z,0.52
2023-01-08T12:26:44.162Z,0.50
2023-01-08T12:27:57.605Z,0.52
2023-01-08T12:28:45.090Z,0.51
2023-01-08T12:29:44.055Z,0.52
2023-01-08T12:30:44.031Z,0.52
2023-01-08T12:31:46.380Z,0.53
2023-01-08T12:32:43.957Z,0.52
2023-01-08T12:33:43.907Z,0.52
2023-01-08T12:34:43.899Z,0.53
2023-01-08T12:35:43.848Z,0.54
2023-01-08T12:36:43.824Z,0.56
2023-01-08T12:37:43.764Z,0.56
2023-01-08T12:38:43.728Z,0.56
2023-01-08T12:39:43.695Z,0.55
2023-01-08T12:40:43.665Z,0.58
2023-01-08T12:41:43.643Z,0.57
2023-01-08T12:42:47.302Z,0.56
2023-01-08T12:43:44.549Z,0.57
2023-01-08T12:44:43.538Z,0.57
2023-01-08T12:45:43.538Z,0.57
2023-01-08T12:46:43.474Z,0.59
2023-01-08T12:47:43.429Z,0.61
2023-01-08T12:48:43.398Z,0.61
2023-01-08T12:49:43.385Z,0.58
2023-01-08T12:50:43.339Z,0.59
2023-01-08T12:51:43.307Z,0.56
2023-01-08T12:52:43.272Z,0.57
2023-01-08T12:53:43.246Z,0.59
2023-01-08T12:54:43.207Z,0.60
2023-01-08T12:55:43.151Z,0.60
2023-01-08T12:56:43.123Z,0.60
2023-01-08T12:57:43.088Z,0.62
2023-01-08T12:58:43.079Z,0.61
2023-01-08T12:59:43.013Z,0.62
2023-01-08T13:00:42.995Z,0.62
2023-01-08T13:01:42.998Z,0.62
2023-01-08T13:13:42.471Z,0.65
2023-01-08T13:14:42.430Z,0.63
2023-01-08T13:15:42.401Z,0.64
2023-01-08T13:16:42.491Z,0.64
2023-01-08T13:17:42.326Z,0.67
2023-01-08T13:18:42.288Z,0.67
2023-01-08T13:19:42.239Z,0.65
2023-01-08T13:20:42.206Z,0.66
2023-01-08T13:21:42.192Z,0.66
2023-01-08T13:22:42.130Z,0.67
2023-01-08T13:23:42.103Z,0.67
2023-01-08T13:24:42.061Z,0.66
2023-01-08T13:25:42.036Z,0.66
2023-01-08T13:26:41.998Z,0.65
2023-01-08T13:27:41.964Z,0.65
2023-01-08T13:28:41.929Z,0.64
2023-01-08T13:29:41.884Z,0.64
2023-01-08T13:30:41.849Z,0.64
2023-01-08T13:31:41.832Z,0.62
2023-01-08T13:32:41.778Z,0.60
2023-01-08T13:33:41.760Z,0.58
2023-01-08T13:34:41.676Z,0.61
2023-01-08T13:35:41.637Z,0.61
2023-01-08T13:36:41.609Z,0.61
2023-01-08T13:37:41.578Z,0.63
2023-01-08T13:38:41.524Z,0.62
2023-01-08T13:39:41.490Z,0.60
2023-01-08T13:40:41.456Z,0.61
2023-01-08T13:41:41.425Z,0.61
2023-01-08T13:42:41.395Z,0.60
2023-01-08T13:43:41.344Z,0.62
2023-01-08T13:44:41.342Z,0.60
2023-01-08T13:45:41.313Z,0.57
2023-01-08T13:46:41.252Z,0.58
2023-01-08T13:47:41.220Z,0.58
2023-01-08T13:48:41.180Z,0.60
2023-01-08T13:49:41.164Z,0.61
2023-01-08T13:50:41.117Z,0.60
2023-01-08T13:51:41.085Z,0.60
2023-01-08T13:52:41.055Z,0.59
2023-01-08T13:53:41.024Z,0.58
2023-01-08T13:54:40.999Z,0.60
2023-01-08T13:55:40.959Z,0.57
2023-01-08T13:56:40.927Z,0.55
2023-01-08T13:57:40.905Z,0.57
2023-01-08T13:58:40.869Z,0.58
2023-01-08T13:59:40.838Z,0.56
2023-01-08T14:00:40.806Z,0.58
2023-01-08T14:01:40.951Z,0.56
2023-01-08T14:02:40.790Z,0.59
2023-01-08T14:03:40.724Z,0.59
2023-01-08T14:04:40.669Z,0.59
2023-01-08T14:05:40.642Z,0.58
2023-01-08T14:06:40.614Z,0.59
2023-01-08T14:07:40.593Z,0.56
2023-01-08T14:08:40.552Z,0.58
2023-01-08T14:09:40.532Z,0.59
2023-01-08T14:10:40.493Z,0.57
2023-01-08T14:11:40.469Z,0.57
2023-01-08T14:12:40.444Z,0.55
2023-01-08T14:13:40.404Z,0.56
2023-01-08T14:14:40.365Z,0.59
2023-01-08T14:15:40.341Z,0.57
2023-01-08T14:16:40.398Z,0.58
2023-01-08T14:17:40.287Z,0.58
2023-01-08T14:18:40.249Z,0.58
2023-01-08T14:19:40.210Z,0.57
2023-01-08T14:20:40.172Z,0.57
2023-01-08T14:21:40.146Z,0.57
2023-01-08T14:22:40.111Z,0.57
2023-01-08T14:23:40.081Z,0.57
2023-01-08T14:24:40.051Z,0.54
2023-01-08T14:25:40.036Z,0.57
2023-01-08T14:26:39.986Z,0.57
2023-01-08T14:27:39.956Z,0.59
2023-01-08T14:28:39.924Z,0.57
2023-01-08T14:29:39.909Z,0.55
2023-01-08T14:30:39.877Z,0.55
2023-01-08T14:31:39.872Z,0.55
2023-01-08T14:32:39.819Z,0.57
2023-01-08T14:33:39.783Z,0.56
2023-01-08T14:34:39.753Z,0.54
2023-01-08T14:35:39.720Z,0.55
2023-01-08T14:36:39.687Z,0.55
2023-01-08T14:37:39.659Z,0.56
2023-01-08T14:38:39.625Z,0.54
2023-01-08T14:39:39.591Z,0.50
2023-01-08T14:40:39.554Z,0.55
2023-01-08T14:41:39.523Z,0.58
2023-01-08T14:42:39.511Z,0.57
2023-01-08T14:43:39.466Z,0.56
2023-01-08T14:44:42.348Z,0.57
2023-01-08T14:45:39.434Z,0.59
2023-01-08T14:46:39.361Z,0.58
2023-01-08T14:47:39.328Z,0.58
2023-01-08T14:48:39.312Z,0.58
2023-01-08T14:49:39.262Z,0.57
2023-01-08T14:50:39.237Z,0.56
2023-01-08T14:51:39.197Z,0.56
2023-01-08T14:52:39.167Z,0.58
2023-01-08T14:53:39.142Z,0.57
2023-01-08T14:54:39.109Z,0.58
2023-01-08T14:55:39.068Z,0.56
2023-01-08T14:56:39.043Z,0.57
2023-01-08T14:57:39.746Z,0.59
2023-01-08T14:58:39.013Z,0.55
2023-01-08T14:59:39.006Z,0.57
2023-01-08T15:00:38.964Z,0.54
2023-01-08T15:01:39.102Z,0.55
2023-01-08T15:02:39.787Z,0.57
2023-01-08T15:03:38.990Z,0.58
2023-01-08T15:04:38.894Z,0.58
2023-01-08T15:05:38.726Z,0.57
2023-01-08T15:06:38.707Z,0.56
2023-01-08T15:07:38.685Z,0.53
2023-01-08T15:08:38.618Z,0.55
2023-01-08T15:09:38.615Z,0.56
2023-01-08T15:10:38.563Z,0.54
2023-01-08T15:11:38.528Z,0.56
2023-01-08T15:12:38.495Z,0.56
2023-01-08T15:13:38.494Z,0.55
2023-01-08T15:14:38.427Z,0.55
2023-01-08T15:15:38.396Z,0.53
2023-01-08T15:16:38.443Z,0.53
2023-01-08T15:17:38.345Z,0.53
2023-01-08T15:18:38.283Z,0.54
2023-01-08T15:19:38.259Z,0.55
2023-01-08T15:20:38.219Z,0.55
2023-01-08T15:21:38.193Z,0.55
2023-01-08T15:22:38.150Z,0.55
2023-01-08T15:23:38.109Z,0.56
2023-01-08T15:24:38.076Z,0.56
2023-01-08T15:25:38.057Z,0.57
2023-01-08T15:26:38.023Z,0.58
2023-01-08T15:27:37.992Z,0.54
2023-01-08T15:28:37.956Z,0.56
2023-01-08T15:29:37.929Z,0.57
2023-01-08T15:30:37.894Z,0.56
2023-01-08T15:31:37.912Z,0.56
2023-01-08T15:32:37.827Z,0.55
2023-01-08T15:33:37.796Z,0.56
2023-01-08T15:34:37.768Z,0.56
2023-01-08T15:35:37.782Z,0.50
2023-01-08T15:36:37.694Z,0.53
2023-01-08T15:37:37.660Z,0.53
2023-01-08T15:38:37.624Z,0.53
2023-01-08T15:39:37.588Z,0.53
2023-01-08T15:40:37.555Z,0.53
2023-01-08T15:41:37.535Z,0.55
2023-01-08T15:42:37.488Z,0.56
2023-01-08T15:43:37.445Z,0.58
2023-01-08T15:44:37.413Z,0.58
2023-01-08T15:45:37.393Z,0.55
2023-01-08T15:46:37.339Z,0.55
2023-01-08T15:47:37.313Z,0.56
2023-01-08T15:48:37.273Z,0.57
2023-01-08T15:49:37.245Z,0.57
2023-01-08T15:50:37.207Z,0.56
2023-01-08T15:51:37.169Z,0.56
2023-01-08T15:52:37.133Z,0.56
2023-01-08T15:53:37.113Z,0.55
2023-01-08T15:54:37.056Z,0.56
2023-01-08T15:55:37.026Z,0.55
2023-01-08T15:56:36.986Z,0.54
2023-01-08T15:57:38.181Z,0.54
2023-01-08T15:58:36.930Z,0.57
2023-01-08T15:59:36.894Z,0.55
2023-01-08T16:00:36.853Z,0.55
2023-01-08T16:01:36.999Z,0.57
2023-01-08T16:02:36.811Z,0.56
2023-01-08T16:03:36.777Z,0.55
2023-01-08T16:04:36.726Z,0.55
2023-01-08T16:05:36.687Z,0.56
2023-01-08T16:06:36.654Z,0.56
2023-01-08T16:07:36.624Z,0.56
2023-01-08T16:08:36.596Z,0.57
2023-01-08T16:09:36.566Z,0.57
2023-01-08T16:10:36.532Z,0.54
2023-01-08T16:11:36.498Z,0.55
2023-01-08T16:12:36.458Z,0.55
2023-01-08T16:13:36.415Z,0.55
2023-01-08T16:14:36.378Z,0.56
2023-01-08T16:15:36.361Z,0.56
2023-01-08T16:16:36.337Z,0.58
2023-01-08T16:17:36.298Z,0.56
2023-01-08T16:18:36.247Z,0.55
2023-01-08T16:19:36.217Z,0.55
2023-01-08T16:20:36.178Z,0.55
2023-01-08T16:21:36.152Z,0.56
2023-01-08T16:22:36.117Z,0.56
2023-01-08T16:23:36.091Z,0.55
2023-01-08T16:24:36.066Z,0.57
2023-01-08T16:25:36.018Z,0.56
2023-01-08T16:26:35.981Z,0.55
2023-01-08T16:27:35.940Z,0.55
2023-01-08T16:28:35.953Z,0.55
2023-01-08T16:29:35.914Z,0.56
2023-01-08T16:30:35.867Z,0.55
2023-01-08T16:31:38.264Z,0.53
2023-01-08T16:32:35.950Z,0.53
2023-01-08T16:33:35.928Z,0.53
2023-01-08T16:34:35.927Z,0.54